sensor_id;sensor_type;location;lat;lon;timestamp;P1;durP1;ratioP1;P2;durP2;ratioP2
61739;SDS011;47645;45.288;12.038;2022-09-21T00:01:25;5.5;;;2.1;;
61739;SDS011;47645;45.288;12.038;2022-09-21T00:11:27;2.7;;;1.1;;
61739;SDS011;47645;45.288;12.038;2022-09-21T00:21:27;8.3;;;1.3;;
61739;SDS011;47645;45.288;12.038;2022-09-21T00:31:28;5.4;;;1.1;;
61739;SDS011;47645;45.288;12.038;2022-09-21T00:41:29;4.2;;;1.0;;
61739;SDS011;47645;45.288;12.038;2022-09-21T00:51:30;6.4;;;1.0;;
61739;SDS011;47645;45.288;12.038;2022-09-21T01:01:31;3.2;;;1.0;;
61739;SDS011;47645;45.288;12.038;2022-09-21T01:11:33;2.5;;;0.6;;
61739;SDS011;47645;45.288;12.038;2022-09-21T01:21:33;5.5;;;1.1;;
61739;SDS011;47645;45.288;12.038;2022-09-21T01:31:35;6.3;;;1.2;;
61739;SDS011;47645;45.288;12.038;2022-09-21T01:41:35;4.4;;;1.1;;
61739;SDS011;47645;45.288;12.038;2022-09-21T01:51:38;4.2;;;0.9;;
61739;SDS011;47645;45.288;12.038;2022-09-21T02:01:38;4.8;;;0.7;;
61739;SDS011;47645;45.288;12.038;2022-09-21T02:11:41;3.7;;;1.2;;
61739;SDS011;47645;45.288;12.038;2022-09-21T02:21:44;2.2;;;0.7;;
61739;SDS011;47645;45.288;12.038;2022-09-21T02:31:41;3.1;;;0.8;;
61739;SDS011;47645;45.288;12.038;2022-09-21T02:41:42;1.7;;;0.5;;
61739;SDS011;47645;45.288;12.038;2022-09-21T02:51:43;2.5;;;0.5;;
61739;SDS011;47645;45.288;12.038;2022-09-21T03:01:43;2.5;;;0.5;;
61739;SDS011;47645;45.288;12.038;2022-09-21T03:11:44;2.0;;;0.5;;
61739;SDS011;47645;45.288;12.038;2022-09-21T03:21:45;2.3;;;0.6;;
61739;SDS011;47645;45.288;12.038;2022-09-21T03:31:47;1.9;;;0.7;;
61739;SDS011;47645;45.288;12.038;2022-09-21T03:41:47;3.3;;;0.6;;
61739;SDS011;47645;45.288;12.038;2022-09-21T03:51:48;1.5;;;0.7;;
61739;SDS011;47645;45.288;12.038;2022-09-21T04:01:49;3.2;;;1.2;;
61739;SDS011;47645;45.288;12.038;2022-09-21T04:11:50;3.5;;;1.9;;
61739;SDS011;47645;45.288;12.038;2022-09-21T04:21:51;5.8;;;2.9;;
61739;SDS011;47645;45.288;12.038;2022-09-21T04:31:52;5.3;;;2.9;;
61739;SDS011;47645;45.288;12.038;2022-09-21T04:41:52;4.0;;;2.0;;
61739;SDS011;47645;45.288;12.038;2022-09-21T04:51:54;3.2;;;1.5;;
61739;SDS011;47645;45.288;12.038;2022-09-21T05:01:54;3.9;;;2.0;;
61739;SDS011;47645;45.288;12.038;2022-09-21T05:11:55;4.6;;;2.1;;
61739;SDS011;47645;45.288;12.038;2022-09-21T05:21:56;2.6;;;1.2;;
61739;SDS011;47645;45.288;12.038;2022-09-21T05:32:01;2.4;;;1.1;;
61739;SDS011;47645;45.288;12.038;2022-09-21T05:41:59;1.8;;;0.9;;
61739;SDS011;47645;45.288;12.038;2022-09-21T05:52:01;2.4;;;1.0;;
61739;SDS011;47645;45.288;12.038;2022-09-21T06:02:03;3.1;;;1.1;;
61739;SDS011;47645;45.288;12.038;2022-09-21T06:12:01;3.7;;;1.2;;
61739;SDS011;47645;45.288;12.038;2022-09-21T06:22:02;1.7;;;1.0;;
61739;SDS011;47645;45.288;12.038;2022-09-21T06:32:03;2.1;;;1.1;;
61739;SDS011;47645;45.288;12.038;2022-09-21T06:42:04;2.5;;;1.0;;
61739;SDS011;47645;45.288;12.038;2022-09-21T06:52:05;2.0;;;0.9;;
61739;SDS011;47645;45.288;12.038;2022-09-21T07:02:07;1.7;;;1.0;;
61739;SDS011;47645;45.288;12.038;2022-09-21T07:12:07;2.3;;;1.2;;
61739;SDS011;47645;45.288;12.038;2022-09-21T07:22:08;2.8;;;1.2;;
61739;SDS011;47645;45.288;12.038;2022-09-21T07:32:11;2.3;;;0.9;;
61739;SDS011;47645;45.288;12.038;2022-09-21T07:42:10;3.1;;;1.0;;
61739;SDS011;47645;45.288;12.038;2022-09-21T07:52:11;4.0;;;0.7;;
61739;SDS011;47645;45.288;12.038;2022-09-21T08:02:12;1.5;;;0.4;;
61739;SDS011;47645;45.288;12.038;2022-09-21T08:12:13;1.2;;;0.4;;
61739;SDS011;47645;45.288;12.038;2022-09-21T08:22:14;3.0;;;0.4;;
61739;SDS011;47645;45.288;12.038;2022-09-21T08:32:15;3.9;;;0.5;;
61739;SDS011;47645;45.288;12.038;2022-09-21T08:42:23;2.7;;;0.5;;
61739;SDS011;47645;45.288;12.038;2022-09-21T08:52:17;6.1;;;0.6;;
61739;SDS011;47645;45.288;12.038;2022-09-21T09:02:27;1.2;;;0.5;;
61739;SDS011;47645;45.288;12.038;2022-09-21T09:12:23;1.3;;;0.3;;
61739;SDS011;47645;45.288;12.038;2022-09-21T09:22:21;2.0;;;0.2;;
61739;SDS011;47645;45.288;12.038;2022-09-21T09:32:23;3.5;;;0.4;;
61739;SDS011;47645;45.288;12.038;2022-09-21T09:42:25;1.2;;;0.4;;
61739;SDS011;47645;45.288;12.038;2022-09-21T09:52:24;2.7;;;0.5;;
61739;SDS011;47645;45.288;12.038;2022-09-21T10:02:25;1.3;;;0.3;;
61739;SDS011;47645;45.288;12.038;2022-09-21T10:12:27;1.8;;;0.7;;
61739;SDS011;47645;45.288;12.038;2022-09-21T10:22:27;2.4;;;0.4;;
61739;SDS011;47645;45.288;12.038;2022-09-21T10:32:29;1.9;;;0.4;;
61739;SDS011;47645;45.288;12.038;2022-09-21T10:42:30;1.9;;;0.4;;
61739;SDS011;47645;45.288;12.038;2022-09-21T10:52:32;2.7;;;0.4;;
61739;SDS011;47645;45.288;12.038;2022-09-21T11:02:34;1.8;;;0.3;;
61739;SDS011;47645;45.288;12.038;2022-09-21T11:12:38;1.6;;;0.4;;
61739;SDS011;47645;45.288;12.038;2022-09-21T11:22:38;1.1;;;0.3;;
61739;SDS011;47645;45.288;12.038;2022-09-21T11:32:44;1.8;;;0.3;;
61739;SDS011;47645;45.288;12.038;2022-09-21T11:42:44;1.3;;;0.2;;
61739;SDS011;47645;45.288;12.038;2022-09-21T11:52:44;2.0;;;0.3;;
61739;SDS011;47645;45.288;12.038;2022-09-21T12:02:47;4.3;;;0.5;;
61739;SDS011;47645;45.288;12.038;2022-09-21T12:12:45;1.2;;;0.3;;
61739;SDS011;47645;45.288;12.038;2022-09-21T12:22:46;2.3;;;0.3;;
61739;SDS011;47645;45.288;12.038;2022-09-21T12:32:54;1.1;;;0.3;;
61739;SDS011;47645;45.288;12.038;2022-09-21T12:42:48;2.4;;;0.4;;
61739;SDS011;47645;45.288;12.038;2022-09-21T12:52:49;1.9;;;0.3;;
61739;SDS011;47645;45.288;12.038;2022-09-21T13:02:52;1.7;;;0.3;;
61739;SDS011;47645;45.288;12.038;2022-09-21T13:12:53;1.8;;;0.4;;
61739;SDS011;47645;45.288;12.038;2022-09-21T13:22:57;1.9;;;0.4;;
61739;SDS011;47645;45.288;12.038;2022-09-21T13:32:55;0.8;;;0.3;;
61739;SDS011;47645;45.288;12.038;2022-09-21T13:43:02;1.0;;;0.3;;
61739;SDS011;47645;45.288;12.038;2022-09-21T13:52:59;1.9;;;0.3;;
61739;SDS011;47645;45.288;12.038;2022-09-21T14:03:04;1.0;;;0.3;;
61739;SDS011;47645;45.288;12.038;2022-09-21T14:13:01;1.2;;;0.2;;
61739;SDS011;47645;45.288;12.038;2022-09-21T14:23:38;1.9;;;0.4;;
61739;SDS011;47645;45.288;12.038;2022-09-21T14:33:11;1.8;;;0.3;;
61739;SDS011;47645;45.288;12.038;2022-09-21T14:43:10;7.3;;;0.6;;
61739;SDS011;47645;45.288;12.038;2022-09-21T14:53:26;1.0;;;0.3;;
61739;SDS011;47645;45.288;12.038;2022-09-21T15:03:16;1.4;;;0.5;;
61739;SDS011;47645;45.288;12.038;2022-09-21T15:13:14;1.6;;;0.5;;
61739;SDS011;47645;45.288;12.038;2022-09-21T15:23:16;2.3;;;0.3;;
61739;SDS011;47645;45.288;12.038;2022-09-21T15:33:14;1.3;;;0.3;;
61739;SDS011;47645;45.288;12.038;2022-09-21T15:43:18;1.0;;;0.3;;
61739;SDS011;47645;45.288;12.038;2022-09-21T15:53:20;1.3;;;0.4;;
61739;SDS011;47645;45.288;12.038;2022-09-21T16:03:18;1.1;;;0.2;;
61739;SDS011;47645;45.288;12.038;2022-09-21T16:23:22;1.1;;;0.5;;
61739;SDS011;47645;45.288;12.038;2022-09-21T16:43:24;0.8;;;0.3;;
61739;SDS011;47645;45.288;12.038;2022-09-21T16:53:27;1.7;;;0.4;;
61739;SDS011;47645;45.288;12.038;2022-09-21T17:03:30;1.0;;;0.3;;
61739;SDS011;47645;45.288;12.038;2022-09-21T17:13:29;0.8;;;0.3;;
61739;SDS011;47645;45.288;12.038;2022-09-21T17:23:29;1.0;;;0.3;;
61739;SDS011;47645;45.288;12.038;2022-09-21T17:33:30;1.5;;;0.7;;
61739;SDS011;47645;45.288;12.038;2022-09-21T17:43:33;1.0;;;0.4;;
61739;SDS011;47645;45.288;12.038;2022-09-21T17:53:34;1.2;;;0.5;;
61739;SDS011;47645;45.288;12.038;2022-09-21T18:03:36;1.4;;;0.6;;
61739;SDS011;47645;45.288;12.038;2022-09-21T18:13:37;1.2;;;0.6;;
61739;SDS011;47645;45.288;12.038;2022-09-21T18:23:40;2.5;;;0.7;;
61739;SDS011;47645;45.288;12.038;2022-09-21T18:33:40;2.4;;;0.8;;
61739;SDS011;47645;45.288;12.038;2022-09-21T18:43:46;2.7;;;1.1;;
61739;SDS011;47645;45.288;12.038;2022-09-21T18:53:45;2.8;;;1.1;;
61739;SDS011;47645;45.288;12.038;2022-09-21T19:03:42;1.4;;;0.6;;
61739;SDS011;47645;45.288;12.038;2022-09-21T19:13:43;1.6;;;0.7;;
61739;SDS011;47645;45.288;12.038;2022-09-21T19:23:46;1.8;;;0.8;;
61739;SDS011;47645;45.288;12.038;2022-09-21T19:33:45;2.1;;;0.9;;
61739;SDS011;47645;45.288;12.038;2022-09-21T19:43:46;2.1;;;1.0;;
61739;SDS011;47645;45.288;12.038;2022-09-21T20:03:48;2.7;;;0.8;;
61739;SDS011;47645;45.288;12.038;2022-09-21T20:23:49;2.0;;;1.0;;
61739;SDS011;47645;45.288;12.038;2022-09-21T20:33:50;2.6;;;1.1;;
61739;SDS011;47645;45.288;12.038;2022-09-21T20:43:50;3.9;;;1.2;;
61739;SDS011;47645;45.288;12.038;2022-09-21T20:53:51;2.1;;;1.0;;
61739;SDS011;47645;45.288;12.038;2022-09-21T21:03:54;2.6;;;1.3;;
61739;SDS011;47645;45.288;12.038;2022-09-21T21:13:54;3.9;;;1.9;;
61739;SDS011;47645;45.288;12.038;2022-09-21T21:25:00;2.1;;;1.3;;
61739;SDS011;47645;45.288;12.038;2022-09-21T21:33:56;2.7;;;1.2;;
61739;SDS011;47645;45.288;12.038;2022-09-21T21:43:57;3.1;;;1.3;;
61739;SDS011;47645;45.288;12.038;2022-09-21T21:53:58;2.9;;;1.4;;
61739;SDS011;47645;45.288;12.038;2022-09-21T22:04:00;2.3;;;1.4;;
61739;SDS011;47645;45.288;12.038;2022-09-21T22:14:01;2.6;;;1.4;;
61739;SDS011;47645;45.288;12.038;2022-09-21T22:24:02;1.7;;;1.1;;
61739;SDS011;47645;45.288;12.038;2022-09-21T22:34:03;2.9;;;1.4;;
61739;SDS011;47645;45.288;12.038;2022-09-21T22:44:04;2.7;;;1.4;;
61739;SDS011;47645;45.288;12.038;2022-09-21T22:54:05;2.8;;;1.5;;
61739;SDS011;47645;45.288;12.038;2022-09-21T23:04:06;2.0;;;1.3;;
61739;SDS011;47645;45.288;12.038;2022-09-21T23:14:07;2.1;;;1.2;;
61739;SDS011;47645;45.288;12.038;2022-09-21T23:24:08;2.2;;;1.2;;
61739;SDS011;47645;45.288;12.038;2022-09-21T23:34:12;2.5;;;1.2;;
61739;SDS011;47645;45.288;12.038;2022-09-21T23:44:09;2.5;;;1.4;;
61739;SDS011;47645;45.288;12.038;2022-09-21T23:54:11;2.8;;;1.5;;
